Time;durP1;ratioP1;P1;durP2;ratioP2;P2;SDS_P1;SDS_P2;PMS_P1;PMS_P2;Temp;Humidity;BMP_temperature;BMP_pressure;BME280_temperature;BME280_humidity;BME280_pressure;Samples;Min_cycle;Max_cycle;Signal;HPM_P1;HPM_P2
2021/12/13 00:01:35;;;;;;;;;;;;;;;4.99;97.56;101633.94;4999976;28;20016;-85
2021/12/13 00:04:04;;;;;;;;;;;;;;;5.01;97.55;101633.88;4999988;28;19957;-85
2021/12/13 00:06:32;;;;;;;;;;;;;;;5.09;97.26;101629.00;4999386;28;20016;-86
2021/12/13 00:08:59;;;;;;;;;;;;;;;5.08;97.24;101632.59;5015783;28;19956;-87
2021/12/13 00:11:28;;;;;;;;;;;;;;;5.03;97.99;101630.22;5000662;28;19922;-86
2021/12/13 00:13:53;;;;;;;;;;;;;;;5.03;98.14;101635.47;4999560;28;19922;-86
2021/12/13 00:16:23;;;;;;;;;;;;;;;5.05;98.17;101630.97;5013861;28;20301;-86
2021/12/13 00:18:53;;;;;;;;;;;;;;;5.06;97.80;101624.78;4999684;28;19937;-86
2021/12/13 00:21:23;;;;;;;;;;;;;;;5.08;97.79;101625.56;4999462;28;19925;-85
2021/12/13 00:23:49;;;;;;;;;;;;;;;5.15;97.37;101618.19;4998465;28;19926;-86
2021/12/13 00:26:32;;;;;;;;;;;;;;;5.15;97.62;101628.66;5020137;28;19947;-87
2021/12/13 00:28:57;;;;;;;;;;;;;;;5.17;97.30;101618.06;4999541;28;19925;-86
2021/12/13 00:31:36;;;;;;;;;;;;;;;5.18;96.89;101628.47;4999267;28;20309;-86
2021/12/13 00:34:20;;;;;;;;;;;;;;;5.24;96.53;101627.25;5000096;28;19921;-87
2021/12/13 00:36:50;;;;;;;;;;;;;;;5.21;96.70;101636.16;5015244;28;20305;-86
2021/12/13 00:39:33;;;;;;;;;;;;;;;5.16;97.09;101635.59;4999464;28;19922;-86
2021/12/13 00:42:00;;;;;;;;;;;;;;;5.23;96.78;101641.31;4998727;28;20271;-86
2021/12/13 00:44:37;;;;;;;;;;;;;;;5.22;97.13;101640.50;4998228;28;19922;-87
2021/12/13 00:47:11;;;;;;;;;;;;;;;5.19;96.99;101637.19;5000581;28;19928;-86
2021/12/13 00:49:39;;;;;;;;;;;;;;;5.20;96.90;101652.00;4999730;28;19926;-86
2021/12/13 00:52:05;;;;;;;;;;;;;;;5.25;96.74;101650.78;4999904;28;19922;-87
2021/12/13 00:54:36;;;;;;;;;;;;;;;5.23;96.70;101646.56;5004384;28;19922;-87
2021/12/13 00:57:07;;;;;;;;;;;;;;;5.26;96.51;101652.47;5011723;28;19922;-89
2021/12/13 00:59:41;;;;;;;;;;;;;;;5.29;96.52;101652.31;4989732;28;19944;-88
2021/12/13 01:02:09;;;;;;;;;;;;;;;5.28;96.30;101647.97;5019556;28;19925;-88
2021/12/13 01:04:54;;;;;;;;;;;;;;;5.33;96.10;101647.72;5009483;28;19929;-88
2021/12/13 01:07:38;;;;;;;;;;;;;;;5.31;96.45;101649.56;5004791;28;19929;-86
2021/12/13 01:10:22;;;;;;;;;;;;;;;5.35;96.15;101655.50;5014145;28;19977;-87
2021/12/13 01:12:50;;;;;;;;;;;;;;;5.41;95.98;101657.75;5016305;28;19922;-87
2021/12/13 01:15:28;;;;;;;;;;;;;;;5.42;95.68;101655.03;5000221;28;19921;-86
2021/12/13 01:18:19;;;;;;;;;;;;;;;5.33;95.96;101652.94;5003725;28;20236;-87
2021/12/13 01:20:59;;;;;;;;;;;;;;;5.35;96.09;101661.59;5000684;28;19918;-86
2021/12/13 01:23:50;;;;;;;;;;;;;;;5.37;96.33;101658.88;4999258;28;19921;-86
2021/12/13 01:26:27;;;;;;;;;;;;;;;5.42;96.05;101657.66;4999093;28;19977;-86
2021/12/13 01:28:55;;;;;;;;;;;;;;;5.46;95.85;101650.47;4997712;28;19932;-87
2021/12/13 01:31:25;;;;;;;;;;;;;;;5.46;95.95;101653.94;5000134;28;19921;-86
2021/12/13 01:33:51;;;;;;;;;;;;;;;5.48;95.51;101654.69;4997996;28;19930;-86
2021/12/13 01:36:21;;;;;;;;;;;;;;;5.49;95.29;101652.91;4999273;28;20391;-85
2021/12/13 01:38:49;;;;;;;;;;;;;;;5.44;95.84;101654.97;4999993;28;19929;-86
2021/12/13 01:41:21;;;;;;;;;;;;;;;5.41;96.02;101661.22;5015579;28;19918;-86
2021/12/13 01:43:49;;;;;;;;;;;;;;;5.44;96.19;101661.03;4998323;28;19945;-86
2021/12/13 01:46:16;;;;;;;;;;;;;;;5.47;95.99;101655.59;5001563;28;20361;-86
2021/12/13 01:48:43;;;;;;;;;;;;;;;5.42;96.20;101656.81;5001459;28;19993;-87
2021/12/13 01:51:11;;;;;;;;;;;;;;;5.47;95.80;101660.84;4999985;28;19940;-86
2021/12/13 01:53:55;;;;;;;;;;;;;;;5.47;96.17;101666.09;5018021;28;19929;-88
2021/12/13 01:59:16;;;;;;;;;;;;;;;5.48;95.94;101667.81;5009148;28;19922;-86
2021/12/13 02:01:43;;;;;;;;;;;;;;;5.51;95.82;101667.63;5002557;28;19922;-86
2021/12/13 02:04:10;;;;;;;;;;;;;;;5.54;95.66;101672.66;5007045;28;19925;-89
2021/12/13 02:06:36;;;;;;;;;;;;;;;5.52;95.96;101673.69;5007123;28;19922;-87
2021/12/13 02:09:05;;;;;;;;;;;;;;;5.50;95.96;101680.81;5022976;28;19929;-85
2021/12/13 02:11:32;;;;;;;;;;;;;;;5.45;96.38;101683.69;5007148;28;19937;-88
2021/12/13 02:14:11;;;;;;;;;;;;;;;5.51;96.16;101677.28;5005397;28;19977;-86
2021/12/13 02:16:59;;;;;;;;;;;;;;;5.52;95.99;101669.28;4999850;28;19922;-88
2021/12/13 02:19:31;;;;;;;;;;;;;;;5.58;96.10;101677.72;5003025;28;19922;-86
2021/12/13 02:22:07;;;;;;;;;;;;;;;5.62;95.50;101671.38;5004597;28;19928;-86
2021/12/13 02:24:34;;;;;;;;;;;;;;;5.59;95.77;101666.31;5022874;28;19917;-86
2021/12/13 02:27:02;;;;;;;;;;;;;;;5.59;95.68;101666.31;5006666;28;19922;-86
2021/12/13 02:29:35;;;;;;;;;;;;;;;5.65;95.31;101668.56;5002985;28;19930;-86
2021/12/13 02:32:01;;;;;;;;;;;;;;;5.65;95.48;101669.41;5003265;28;20402;-86
2021/12/13 02:34:29;;;;;;;;;;;;;;;5.69;95.30;101667.44;5003259;28;20173;-87
2021/12/13 02:36:55;;;;;;;;;;;;;;;5.63;95.37;101671.28;5003695;28;20092;-87
2021/12/13 02:39:30;;;;;;;;;;;;;;;5.66;95.34;101681.59;5004496;28;20370;-87
2021/12/13 02:41:57;;;;;;;;;;;;;;;5.63;95.75;101691.44;5002080;28;19922;-86
2021/12/13 02:44:30;;;;;;;;;;;;;;;5.69;95.54;101689.28;5016994;28;20326;-86
2021/12/13 02:47:02;;;;;;;;;;;;;;;5.68;95.45;101690.22;5002813;28;19980;-86
2021/12/13 02:49:28;;;;;;;;;;;;;;;5.65;95.32;101687.78;5000985;28;19929;-86
2021/12/13 02:51:56;;;;;;;;;;;;;;;5.63;95.54;101680.94;5001516;28;19933;-87
2021/12/13 02:54:23;;;;;;;;;;;;;;;5.66;95.46;101681.59;5000961;28;19930;-86
2021/12/13 02:56:54;;;;;;;;;;;;;;;5.68;95.48;101682.34;5001929;28;19992;-87
2021/12/13 02:59:21;;;;;;;;;;;;;;;5.70;95.39;101687.53;4999650;28;19938;-87
2021/12/13 03:01:54;;;;;;;;;;;;;;;5.69;95.37;101685.81;5017644;28;19933;-87
2021/12/13 03:04:21;;;;;;;;;;;;;;;5.68;95.61;101679.72;5001241;28;19922;-85
2021/12/13 03:06:49;;;;;;;;;;;;;;;5.72;95.28;101680.38;5002532;28;19922;-85
2021/12/13 03:09:16;;;;;;;;;;;;;;;5.66;95.71;101680.75;5002224;28;19922;-87
2021/12/13 03:11:42;;;;;;;;;;;;;;;5.65;95.86;101679.06;5004497;28;19928;-88
2021/12/13 03:14:10;;;;;;;;;;;;;;;5.72;95.38;101685.63;5005043;28;19925;-86
2021/12/13 03:16:56;;;;;;;;;;;;;;;5.67;95.35;101680.69;5003087;28;20173;-86
2021/12/13 03:19:21;;;;;;;;;;;;;;;5.67;95.54;101679.81;5001838;28;19930;-84
2021/12/13 03:21:49;;;;;;;;;;;;;;;5.69;95.67;101681.41;5019509;28;19924;-87
2021/12/13 03:24:22;;;;;;;;;;;;;;;5.70;95.62;101692.78;5018718;28;19929;-86
2021/12/13 03:26:59;;;;;;;;;;;;;;;5.72;95.51;101685.63;5003932;28;19976;-86
2021/12/13 03:29:39;;;;;;;;;;;;;;;5.72;95.74;101685.63;5001933;28;20145;-86
2021/12/13 03:32:08;;;;;;;;;;;;;;;5.75;95.36;101685.47;5005234;28;19973;-86
2021/12/13 03:34:39;;;;;;;;;;;;;;;5.71;95.70;101679.53;5003303;28;20370;-85
2021/12/13 03:37:07;;;;;;;;;;;;;;;5.78;95.46;101682.63;5003634;28;19921;-88
2021/12/13 03:39:34;;;;;;;;;;;;;;;5.79;95.17;101675.59;5001018;28;19918;-87
2021/12/13 03:42:02;;;;;;;;;;;;;;;5.83;95.08;101677.13;5001284;28;19961;-85
2021/12/13 03:44:33;;;;;;;;;;;;;;;5.80;95.07;101677.31;5015031;28;19925;-86
2021/12/13 03:47:06;;;;;;;;;;;;;;;5.78;95.31;101684.44;5000547;28;19925;-86
2021/12/13 03:49:34;;;;;;;;;;;;;;;5.77;95.46;101680.09;4999180;28;19932;-85
2021/12/13 03:52:00;;;;;;;;;;;;;;;5.79;95.36;101679.06;4999763;28;20302;-87
2021/12/13 03:54:26;;;;;;;;;;;;;;;5.72;95.74;101680.38;5000424;28;19922;-86
2021/12/13 03:56:52;;;;;;;;;;;;;;;5.72;95.42;101678.63;5016796;28;19921;-87
2021/12/13 03:59:22;;;;;;;;;;;;;;;5.74;95.42;101682.00;5000757;28;20307;-85
2021/12/13 04:01:53;;;;;;;;;;;;;;;5.74;95.46;101681.13;5000252;28;19922;-86
2021/12/13 04:04:24;;;;;;;;;;;;;;;5.67;96.12;101680.69;4998849;28;19921;-85
2021/12/13 04:06:54;;;;;;;;;;;;;;;5.64;96.12;101680.00;5001228;28;19972;-86
2021/12/13 04:09:21;;;;;;;;;;;;;;;5.67;95.74;101678.06;5001068;28;20145;-86
2021/12/13 04:11:47;;;;;;;;;;;;;;;5.71;95.82;101682.16;4999912;28;19976;-85
2021/12/13 04:14:20;;;;;;;;;;;;;;;5.65;96.32;101676.44;4998529;28;19917;-86
2021/12/13 04:17:02;;;;;;;;;;;;;;;5.60;96.58;101679.34;5000751;28;19956;-87
2021/12/13 04:19:37;;;;;;;;;;;;;;;5.59;96.87;101684.69;4992818;28;19922;-85
2021/12/13 04:22:03;;;;;;;;;;;;;;;5.58;96.86;101683.84;4998691;28;20264;-86
2021/12/13 04:24:28;;;;;;;;;;;;;;;5.60;96.72;101687.22;5000960;28;19945;-86
2021/12/13 04:26:57;;;;;;;;;;;;;;;5.61;96.68;101685.44;5016061;28;20367;-86
2021/12/13 04:29:27;;;;;;;;;;;;;;;5.58;96.66;101689.09;5000721;28;20053;-88
2021/12/13 04:31:53;;;;;;;;;;;;;;;5.57;97.23;101683.91;5000832;28;20407;-85
2021/12/13 04:34:21;;;;;;;;;;;;;;;5.57;96.93;101687.38;5000555;28;20302;-86
2021/12/13 04:36:48;;;;;;;;;;;;;;;5.59;96.97;101679.44;5000973;28;19922;-86
2021/12/13 04:39:27;;;;;;;;;;;;;;;5.57;97.13;101681.31;5000134;28;19917;-85
2021/12/13 04:41:56;;;;;;;;;;;;;;;5.59;96.76;101682.06;5001008;28;19936;-86
2021/12/13 04:44:21;;;;;;;;;;;;;;;5.66;96.61;101683.38;5001582;28;19929;-87
2021/12/13 04:46:49;;;;;;;;;;;;;;;5.64;96.60;101691.34;5018425;28;19941;-87
2021/12/13 04:49:16;;;;;;;;;;;;;;;5.64;96.36;101693.97;5004190;28;20007;-86
2021/12/13 04:51:43;;;;;;;;;;;;;;;5.64;96.73;101693.97;4999736;28;19945;-86
2021/12/13 04:54:09;;;;;;;;;;;;;;;5.63;96.47;101687.03;4999816;28;19925;-87
2021/12/13 04:56:35;;;;;;;;;;;;;;;5.68;96.62;101684.97;5000530;28;19921;-86
2021/12/13 04:59:01;;;;;;;;;;;;;;;5.67;96.50;101691.16;5000368;28;19989;-87
2021/12/13 05:01:27;;;;;;;;;;;;;;;5.71;96.53;101687.41;5001585;28;20386;-85
2021/12/13 05:03:55;;;;;;;;;;;;;;;5.69;96.63;101686.66;5002509;28;19928;-85
2021/12/13 05:06:24;;;;;;;;;;;;;;;5.71;96.82;101687.41;5001841;28;20006;-88
2021/12/13 05:08:50;;;;;;;;;;;;;;;5.71;96.79;101695.28;5002899;28;19921;-87
2021/12/13 05:11:16;;;;;;;;;;;;;;;5.74;96.33;101694.25;5001461;28;19925;-87
2021/12/13 05:13:50;;;;;;;;;;;;;;;5.79;96.42;101691.34;5017140;28;20009;-86
2021/12/13 05:16:17;;;;;;;;;;;;;;;5.78;96.30;101702.81;5001448;28;19918;-86
2021/12/13 05:18:45;;;;;;;;;;;;;;;5.76;96.38;101702.88;5001850;28;19918;-86
2021/12/13 05:21:12;;;;;;;;;;;;;;;5.75;96.62;101698.59;5003284;28;19921;-87
2021/12/13 05:23:49;;;;;;;;;;;;;;;5.77;96.48;101698.47;5002813;28;19953;-86
2021/12/13 05:26:26;;;;;;;;;;;;;;;5.81;96.15;101705.22;5001613;28;19952;-87
2021/12/13 05:28:51;;;;;;;;;;;;;;;5.80;95.89;101696.53;5001831;28;19952;-85
2021/12/13 05:31:18;;;;;;;;;;;;;;;5.85;96.12;101704.13;5001191;28;19933;-85
2021/12/13 05:33:48;;;;;;;;;;;;;;;5.79;96.02;101705.31;5003165;28;20204;-85
2021/12/13 05:36:24;;;;;;;;;;;;;;;5.80;96.02;101700.94;5000910;28;20001;-87
2021/12/13 05:38:59;;;;;;;;;;;;;;;5.82;96.14;101706.94;5002450;28;19918;-87
2021/12/13 05:41:26;;;;;;;;;;;;;;;5.80;96.24;101704.41;5001546;28;19924;-85
2021/12/13 05:43:55;;;;;;;;;;;;;;;5.88;95.89;101701.31;5001099;28;19922;-86
2021/12/13 05:46:23;;;;;;;;;;;;;;;5.79;96.06;101705.31;5001748;28;19965;-86
2021/12/13 05:48:48;;;;;;;;;;;;;;;5.81;96.30;101713.09;5009500;28;19932;-85
2021/12/13 05:51:23;;;;;;;;;;;;;;;5.86;96.01;101711.88;5006035;28;19985;-86
2021/12/13 05:53:57;;;;;;;;;;;;;;;5.83;96.16;101714.69;4998090;28;19929;-87
2021/12/13 05:56:25;;;;;;;;;;;;;;;5.85;96.16;101715.47;5000529;28;19941;-85
2021/12/13 05:58:53;;;;;;;;;;;;;;;5.81;96.36;101720.97;5001923;28;19944;-87
2021/12/13 06:01:24;;;;;;;;;;;;;;;5.82;96.34;101726.16;5001328;28;20391;-88
2021/12/13 06:03:52;;;;;;;;;;;;;;;5.86;96.38;101722.38;5003166;28;20294;-87
2021/12/13 06:06:26;;;;;;;;;;;;;;;5.87;96.23;101733.75;5000072;28;19918;-88
2021/12/13 06:08:53;;;;;;;;;;;;;;;5.90;95.99;101736.19;5003478;28;19961;-86
2021/12/13 06:11:32;;;;;;;;;;;;;;;5.91;95.98;101733.47;5009252;28;19993;-87
2021/12/13 06:13:58;;;;;;;;;;;;;;;5.88;96.12;101735.44;5023038;28;19947;-86
2021/12/13 06:16:23;;;;;;;;;;;;;;;5.89;96.27;101734.50;5005611;28;20183;-87
2021/12/13 06:18:57;;;;;;;;;;;;;;;5.90;96.31;101742.28;5009913;28;19921;-87
2021/12/13 06:21:41;;;;;;;;;;;;;;;5.92;95.96;101743.03;5026123;28;19918;-86
2021/12/13 06:24:07;;;;;;;;;;;;;;;5.93;95.88;101739.50;5006750;28;19957;-86
2021/12/13 06:26:33;;;;;;;;;;;;;;;5.91;95.92;101737.84;5002491;28;19922;-87
2021/12/13 06:29:01;;;;;;;;;;;;;;;5.97;95.96;101739.31;5003109;28;19936;-86
2021/12/13 06:31:35;;;;;;;;;;;;;;;5.91;96.01;101740.47;5002754;28;19969;-86
2021/12/13 06:34:02;;;;;;;;;;;;;;;5.88;95.91;101743.31;5016558;28;20008;-85
2021/12/13 06:36:35;;;;;;;;;;;;;;;5.92;96.24;101747.44;5000060;28;19925;-86
2021/12/13 06:39:03;;;;;;;;;;;;;;;5.92;96.13;101756.16;5002139;28;19972;-86
2021/12/13 06:41:29;;;;;;;;;;;;;;;5.92;96.09;101763.19;5002525;28;19953;-88
2021/12/13 06:43:56;;;;;;;;;;;;;;;6.00;95.42;101760.13;5018702;28;19926;-86
2021/12/13 06:46:30;;;;;;;;;;;;;;;6.02;95.25;101766.97;5003168;28;19929;-86
2021/12/13 06:48:59;;;;;;;;;;;;;;;5.94;95.58;101758.72;5004430;28;20378;-85
2021/12/13 06:51:36;;;;;;;;;;;;;;;5.94;95.97;101758.72;5004074;28;19926;-85
2021/12/13 06:54:04;;;;;;;;;;;;;;;5.94;95.85;101758.72;5004568;28;19918;-87
2021/12/13 06:56:31;;;;;;;;;;;;;;;6.01;95.48;101759.22;5016634;28;19954;-87
2021/12/13 06:58:58;;;;;;;;;;;;;;;5.98;95.57;101757.59;5000353;28;19987;-86
2021/12/13 07:01:24;;;;;;;;;;;;;;;5.96;95.71;101762.13;4999876;28;19929;-87
2021/12/13 07:03:55;;;;;;;;;;;;;;;5.93;96.06;101763.13;5017756;28;19934;-85
2021/12/13 07:06:21;;;;;;;;;;;;;;;5.97;95.50;101752.44;5001733;28;19921;-85
2021/12/13 07:08:47;;;;;;;;;;;;;;;5.94;96.17;101764.81;5002497;28;19922;-85
2021/12/13 07:11:17;;;;;;;;;;;;;;;5.93;96.18;101757.00;5005722;28;19930;-86
2021/12/13 07:14:03;;;;;;;;;;;;;;;5.95;95.99;101761.25;5005757;28;19928;-85
2021/12/13 07:16:32;;;;;;;;;;;;;;;5.95;96.00;101763.03;5018242;28;19922;-86
2021/12/13 07:19:03;;;;;;;;;;;;;;;5.94;95.93;101761.34;5004303;28;19952;-86
2021/12/13 07:21:30;;;;;;;;;;;;;;;5.97;96.24;101757.69;4999567;28;20176;-85
2021/12/13 07:24:03;;;;;;;;;;;;;;;5.96;96.21;101762.13;5001469;28;19921;-85
2021/12/13 07:26:34;;;;;;;;;;;;;;;5.99;96.34;101767.19;5000561;28;19925;-85
2021/12/13 07:29:00;;;;;;;;;;;;;;;5.99;96.12;101763.72;5007152;28;19937;-88
2021/12/13 07:31:26;;;;;;;;;;;;;;;6.05;96.19;101764.16;5005112;28;19957;-87
2021/12/13 07:33:51;;;;;;;;;;;;;;;6.04;95.90;101764.28;5004747;28;19929;-85
2021/12/13 07:36:18;;;;;;;;;;;;;;;6.03;96.10;101765.19;5005386;28;19942;-87
2021/12/13 07:38:49;;;;;;;;;;;;;;;6.06;96.03;101767.66;5004588;28;19949;-85
2021/12/13 07:41:14;;;;;;;;;;;;;;;6.03;96.19;101767.81;5005105;28;20659;-86
2021/12/13 07:43:43;;;;;;;;;;;;;;;6.07;96.14;101767.56;5004036;28;20024;-87
2021/12/13 07:46:22;;;;;;;;;;;;;;;6.09;96.00;101776.19;5005069;28;20053;-86
2021/12/13 07:48:47;;;;;;;;;;;;;;;6.11;96.01;101766.44;5005150;28;19922;-88
2021/12/13 07:51:15;;;;;;;;;;;;;;;6.06;96.27;101772.91;5019448;28;19926;-86
2021/12/13 07:53:47;;;;;;;;;;;;;;;6.08;96.40;101779.75;5017567;28;20302;-86
2021/12/13 07:56:19;;;;;;;;;;;;;;;6.16;96.26;101779.28;5003343;28;19937;-88
2021/12/13 07:58:46;;;;;;;;;;;;;;;6.20;96.48;101782.56;5008728;28;19921;-85
2021/12/13 08:01:17;;;;;;;;;;;;;;;6.19;96.45;101781.72;5005753;28;19922;-88
2021/12/13 08:03:47;;;;;;;;;;;;;;;6.35;96.64;101782.50;5004881;28;19922;-85
2021/12/13 08:06:13;;;;;;;;;;;;;;;6.45;96.41;101788.03;5002568;28;19929;-87
2021/12/13 08:08:45;;;;;;;;;;;;;;;6.57;95.84;101789.88;5002462;28;19930;-86
2021/12/13 08:11:10;;;;;;;;;;;;;;;6.66;95.39;101791.13;5017468;28;19926;-85
2021/12/13 08:13:35;;;;;;;;;;;;;;;6.69;95.12;101793.53;4998610;28;19985;-86
2021/12/13 08:16:04;;;;;;;;;;;;;;;6.74;94.96;101794.09;4994430;28;19921;-87
2021/12/13 08:18:31;;;;;;;;;;;;;;;6.75;94.76;101801.06;5007263;28;19929;-87
2021/12/13 08:21:00;;;;;;;;;;;;;;;6.73;94.15;101795.06;5006440;28;19929;-86
2021/12/13 08:23:27;;;;;;;;;;;;;;;6.74;93.80;101804.63;5004373;28;19922;-87
2021/12/13 08:25:54;;;;;;;;;;;;;;;6.71;93.82;101801.34;5004316;28;19957;-86
2021/12/13 08:28:29;;;;;;;;;;;;;;;6.70;93.91;101799.66;5004998;28;19941;-85
2021/12/13 08:30:56;;;;;;;;;;;;;;;6.71;93.79;101799.56;5002838;28;19925;-86
2021/12/13 08:33:24;;;;;;;;;;;;;;;6.70;93.74;101800.50;5018802;28;19917;-87
2021/12/13 08:35:52;;;;;;;;;;;;;;;6.61;94.13;101793.19;5002717;28;20444;-85
2021/12/13 08:38:26;;;;;;;;;;;;;;;6.70;94.32;101794.41;5003690;28;19929;-88
2021/12/13 08:40:52;;;;;;;;;;;;;;;6.67;93.49;101789.31;5004881;28;19926;-86
2021/12/13 08:43:31;;;;;;;;;;;;;;;6.66;93.73;101795.53;5005403;28;20471;-89
2021/12/13 08:45:57;;;;;;;;;;;;;;;6.55;94.02;101801.44;5012526;28;19922;-88
2021/12/13 08:48:22;;;;;;;;;;;;;;;6.64;93.98;101800.03;5005223;28;20010;-87
2021/12/13 08:50:50;;;;;;;;;;;;;;;6.58;93.88;101798.66;5005105;28;19933;-86
2021/12/13 08:53:20;;;;;;;;;;;;;;;6.60;94.45;101812.50;5006025;28;19994;-86
2021/12/13 08:55:54;;;;;;;;;;;;;;;6.68;94.33;101812.91;5005071;28;19921;-86
2021/12/13 08:58:21;;;;;;;;;;;;;;;6.75;93.64;101811.56;5004467;28;19925;-86
2021/12/13 09:00:47;;;;;;;;;;;;;;;6.71;93.39;101817.97;5002607;28;19977;-85
2021/12/13 09:03:15;;;;;;;;;;;;;;;6.71;93.38;101811.88;4998335;28;19932;-87
2021/12/13 09:05:50;;;;;;;;;;;;;;;6.75;92.84;101814.22;4997208;28;19922;-86
2021/12/13 09:08:22;;;;;;;;;;;;;;;6.73;92.69;101810.00;4991028;28;19925;-86
2021/12/13 09:10:54;;;;;;;;;;;;;;;6.68;92.86;101807.63;4990579;28;19976;-86
2021/12/13 09:13:35;;;;;;;;;;;;;;;6.76;93.34;101804.53;4998619;28;20564;-86
2021/12/13 09:16:00;;;;;;;;;;;;;;;6.81;92.62;101805.91;5001237;28;19928;-86
2021/12/13 09:18:25;;;;;;;;;;;;;;;6.87;93.04;101802.09;4995900;28;19957;-86
2021/12/13 09:20:53;;;;;;;;;;;;;;;6.84;93.00;101809.31;4995315;28;19969;-88
2021/12/13 09:23:20;;;;;;;;;;;;;;;6.98;92.45;101812.78;5000713;28;19945;-85
2021/12/13 09:25:51;;;;;;;;;;;;;;;6.97;91.70;101818.13;5006180;28;19922;-86
2021/12/13 09:28:19;;;;;;;;;;;;;;;7.00;91.54;101823.19;4991750;28;19922;-86
2021/12/13 09:31:01;;;;;;;;;;;;;;;6.92;90.98;101828.09;4994284;28;19929;-88
2021/12/13 09:33:31;;;;;;;;;;;;;;;6.94;91.20;101823.59;4999838;28;20166;-86
2021/12/13 09:36:23;;;;;;;;;;;;;;;7.00;91.42;101825.81;4991983;28;20349;-85
2021/12/13 09:39:04;;;;;;;;;;;;;;;7.03;91.29;101825.59;4985771;28;19933;-87
2021/12/13 09:41:44;;;;;;;;;;;;;;;7.10;91.43;101823.44;5000185;28;19932;-86
2021/12/13 09:44:09;;;;;;;;;;;;;;;7.09;91.18;101824.41;4993649;28;19922;-87
2021/12/13 09:46:42;;;;;;;;;;;;;;;7.13;91.31;101824.09;4999633;28;19929;-86
2021/12/13 09:49:14;;;;;;;;;;;;;;;7.22;91.01;101830.53;4988394;28;19961;-86
2021/12/13 09:51:43;;;;;;;;;;;;;;;7.25;90.77;101824.28;5000640;28;19933;-86
2021/12/13 09:54:10;;;;;;;;;;;;;;;7.23;90.82;101822.56;5000854;28;19929;-87
2021/12/13 09:56:36;;;;;;;;;;;;;;;7.32;90.83;101815.88;5002303;28;19921;-87
2021/12/13 09:59:12;;;;;;;;;;;;;;;7.34;90.60;101821.91;5003767;28;19928;-86
2021/12/13 10:01:38;;;;;;;;;;;;;;;7.39;89.86;101816.34;4998853;28;19933;-88
2021/12/13 10:04:07;;;;;;;;;;;;;;;7.42;89.84;101816.97;4999236;28;19945;-85
2021/12/13 10:06:39;;;;;;;;;;;;;;;7.42;89.53;101816.97;5016779;28;19926;-86
2021/12/13 10:09:08;;;;;;;;;;;;;;;7.43;89.76;101804.66;5000691;28;19929;-88
2021/12/13 10:11:36;;;;;;;;;;;;;;;7.50;89.88;101810.34;4995331;28;19933;-88
2021/12/13 10:14:02;;;;;;;;;;;;;;;7.50;89.50;101802.47;5001308;28;19937;-87
2021/12/13 10:16:31;;;;;;;;;;;;;;;7.56;90.14;101807.34;5001226;28;20310;-86
2021/12/13 10:18:57;;;;;;;;;;;;;;;7.61;89.08;101802.59;5001042;28;19922;-86
2021/12/13 10:21:24;;;;;;;;;;;;;;;7.60;88.82;101798.28;4997972;28;19922;-86
2021/12/13 10:23:53;;;;;;;;;;;;;;;7.61;88.83;101798.19;4994345;28;19926;-88
2021/12/13 10:26:19;;;;;;;;;;;;;;;7.58;89.70;101802.78;4999869;28;19918;-87
2021/12/13 10:28:54;;;;;;;;;;;;;;;7.65;89.55;101801.44;4997548;28;20072;-87
2021/12/13 10:31:23;;;;;;;;;;;;;;;7.77;89.08;101798.03;5011822;28;19927;-88
2021/12/13 10:33:48;;;;;;;;;;;;;;;7.79;88.50;101804.00;5012441;28;19929;-86
2021/12/13 10:36:15;;;;;;;;;;;;;;;7.81;88.48;101793.38;5006272;28;19918;-86
2021/12/13 10:38:47;;;;;;;;;;;;;;;7.73;89.56;101795.69;5007286;28;19937;-87
2021/12/13 10:41:15;;;;;;;;;;;;;;;7.71;89.67;101794.94;5004019;28;19924;-87
2021/12/13 10:43:47;;;;;;;;;;;;;;;7.88;88.68;101799.91;4988076;28;19922;-87
2021/12/13 10:46:20;;;;;;;;;;;;;;;7.75;88.52;101797.28;5005644;28;19953;-86
2021/12/13 10:48:46;;;;;;;;;;;;;;;7.91;88.58;101789.16;5006028;28;20303;-88
2021/12/13 10:51:16;;;;;;;;;;;;;;;7.93;88.36;101786.44;5006320;28;19925;-86
2021/12/13 10:53:42;;;;;;;;;;;;;;;7.91;87.82;101789.16;5004735;28;20024;-86
2021/12/13 10:56:12;;;;;;;;;;;;;;;8.00;88.33;101787.72;5006249;28;19953;-86
2021/12/13 10:58:40;;;;;;;;;;;;;;;7.96;87.84;101789.72;5006564;28;19922;-86
2021/12/13 11:01:09;;;;;;;;;;;;;;;8.00;88.07;101788.56;5022698;28;20004;-87
2021/12/13 11:03:36;;;;;;;;;;;;;;;8.11;88.32;101785.19;5006821;28;19929;-86
2021/12/13 11:06:03;;;;;;;;;;;;;;;8.13;88.44;101791.22;5007881;28;20083;-87
2021/12/13 11:08:29;;;;;;;;;;;;;;;8.19;87.93;101780.22;5007361;28;19946;-87
2021/12/13 11:11:05;;;;;;;;;;;;;;;8.21;88.41;101780.16;5006985;28;20034;-87
2021/12/13 11:13:32;;;;;;;;;;;;;;;8.23;87.73;101788.78;5018385;28;20390;-87
2021/12/13 11:16:04;;;;;;;;;;;;;;;8.29;87.39;101783.06;5007687;28;20303;-86
2021/12/13 11:18:29;;;;;;;;;;;;;;;8.28;87.34;101773.50;5004559;28;19922;-87
2021/12/13 11:21:15;;;;;;;;;;;;;;;8.27;87.29;101775.31;5000250;28;19921;-87
2021/12/13 11:23:40;;;;;;;;;;;;;;;8.30;87.12;101776.88;5003078;28;20011;-87
2021/12/13 11:26:08;;;;;;;;;;;;;;;8.24;88.04;101779.91;5018742;28;19922;-88
2021/12/13 11:28:35;;;;;;;;;;;;;;;8.34;88.34;101788.88;5002365;28;19929;-87
2021/12/13 11:31:07;;;;;;;;;;;;;;;8.45;87.88;101790.81;5001872;28;19926;-86
2021/12/13 11:33:39;;;;;;;;;;;;;;;8.44;87.72;101784.69;4992092;28;19936;-87
2021/12/13 11:36:07;;;;;;;;;;;;;;;8.43;87.32;101782.16;5018507;28;20055;-87
2021/12/13 11:39:01;;;;;;;;;;;;;;;8.44;87.32;101784.69;5012435;28;19944;-87
2021/12/13 11:41:45;;;;;;;;;;;;;;;8.50;87.05;101781.63;5002877;28;19958;-88
2021/12/13 11:44:35;;;;;;;;;;;;;;;8.47;87.34;101781.84;5018567;28;19918;-87
2021/12/13 11:47:19;;;;;;;;;;;;;;;8.53;87.03;101777.91;5003464;28;20949;-87
2021/12/13 11:49:47;;;;;;;;;;;;;;;8.55;87.65;101770.75;5018705;28;20302;-86
2021/12/13 11:52:37;;;;;;;;;;;;;;;8.55;87.00;101769.91;5017094;28;19918;-87
2021/12/13 11:55:15;;;;;;;;;;;;;;;8.64;87.10;101778.00;4994102;28;19929;-88
2021/12/13 11:57:50;;;;;;;;;;;;;;;8.67;86.25;101783.06;5002751;28;19922;-86
2021/12/13 12:00:31;;;;;;;;;;;;;;;8.55;86.36;101775.19;4994661;28;19944;-86
2021/12/13 12:03:20;;;;;;;;;;;;;;;8.54;87.76;101776.16;5001601;28;20061;-87
2021/12/13 12:06:21;;;;;;;;;;;;;;;8.63;87.95;101775.50;5017176;28;19975;-87
2021/12/13 12:09:02;;;;;;;;;;;;;;;8.76;86.99;101776.31;4978812;28;20295;-86
2021/12/13 12:11:30;;;;;;;;;;;;;;;8.66;86.97;101768.22;4991343;28;19948;-87
2021/12/13 12:14:05;;;;;;;;;;;;;;;8.61;86.75;101770.34;5002036;28;19922;-87
2021/12/13 12:16:33;;;;;;;;;;;;;;;8.58;85.76;101765.28;5000490;28;20326;-88
2021/12/13 12:18:58;;;;;;;;;;;;;;;8.53;86.80;101764.75;5001351;28;19921;-86
2021/12/13 12:21:28;;;;;;;;;;;;;;;8.58;87.42;101757.38;5017099;28;20486;-87
2021/12/13 12:23:54;;;;;;;;;;;;;;;8.75;86.53;101756.16;5001127;28;19922;-86
2021/12/13 12:26:19;;;;;;;;;;;;;;;8.74;86.61;101756.28;5001773;28;19944;-88
2021/12/13 12:28:46;;;;;;;;;;;;;;;8.71;86.86;101750.25;5002784;28;20395;-86
2021/12/13 12:31:13;;;;;;;;;;;;;;;8.79;86.73;101749.69;5012921;28;19926;-86
2021/12/13 12:33:40;;;;;;;;;;;;;;;8.79;86.49;101740.97;5004039;28;19922;-87
2021/12/13 12:36:15;;;;;;;;;;;;;;;8.80;87.14;101745.28;5000337;28;19928;-86
2021/12/13 12:39:06;;;;;;;;;;;;;;;8.78;86.31;101740.13;5001231;28;19924;-89
2021/12/13 12:41:45;;;;;;;;;;;;;;;8.82;85.79;101743.38;4990996;28;20345;-87
2021/12/13 12:44:26;;;;;;;;;;;;;;;8.74;86.20;101738.66;5003256;28;20361;-87
2021/12/13 12:46:53;;;;;;;;;;;;;;;8.62;87.29;101747.44;5020038;28;19922;-87
2021/12/13 12:49:22;;;;;;;;;;;;;;;8.70;86.35;101735.41;5006140;28;19925;-87
2021/12/13 12:51:49;;;;;;;;;;;;;;;8.82;86.69;101738.97;5004735;28;19929;-86
2021/12/13 12:54:18;;;;;;;;;;;;;;;8.79;86.12;101735.69;5004329;28;20291;-87
2021/12/13 12:56:43;;;;;;;;;;;;;;;8.86;85.89;101742.19;5002958;28;19981;-87
2021/12/13 12:59:31;;;;;;;;;;;;;;;8.83;86.23;101742.44;5018880;28;19922;-84
2021/12/13 13:02:08;;;;;;;;;;;;;;;8.87;86.69;101741.25;4985972;28;19922;-88
2021/12/13 13:04:37;;;;;;;;;;;;;;;8.90;85.39;101736.59;5000971;28;19921;-85
2021/12/13 13:07:02;;;;;;;;;;;;;;;8.95;85.46;101730.16;5016733;28;19929;-85
2021/12/13 13:09:37;;;;;;;;;;;;;;;8.82;85.39;101728.41;5017174;28;20383;-85